Time;durP1;ratioP1;P1;durP2;ratioP2;P2;SDS_P1;SDS_P2;PMS_P1;PMS_P2;Temp;Humidity;BMP_temperature;BMP_pressure;BME280_temperature;BME280_humidity;BME280_pressure;Samples;Min_cycle;Max_cycle;Signal;HPM_P1;HPM_P2
2021/12/22 00:00:35;;;;;;;6.25;2.60;;;0.00;99.90;;;;;;6191615;23;20020;-80
2021/12/22 00:03:06;;;;;;;5.97;3.60;;;0.00;99.90;;;;;;6191844;23;20099;-80
2021/12/22 00:05:43;;;;;;;7.87;3.50;;;-0.10;99.90;;;;;;6191668;23;20078;-80
2021/12/22 00:08:12;;;;;;;8.52;4.05;;;-0.10;99.90;;;;;;6191293;23;20027;-80
2021/12/22 00:10:41;;;;;;;4.82;2.47;;;-0.10;99.90;;;;;;6190987;23;20020;-80
2021/12/22 00:13:09;;;;;;;8.35;2.90;;;-0.10;99.90;;;;;;6191840;23;20021;-80
2021/12/22 00:16:03;;;;;;;6.45;3.42;;;-0.10;99.90;;;;;;6217111;23;20087;-80
2021/12/22 00:18:40;;;;;;;3.23;2.10;;;-0.10;99.90;;;;;;6217838;23;20396;-80
2021/12/22 00:21:14;;;;;;;4.88;2.63;;;-0.10;99.90;;;;;;6192186;23;20012;-79
2021/12/22 00:23:46;;;;;;;5.45;2.13;;;-0.20;99.90;;;;;;6191766;23;20284;-80
2021/12/22 00:26:17;;;;;;;5.30;3.08;;;-0.20;99.90;;;;;;6216261;23;20026;-80
2021/12/22 00:28:47;;;;;;;5.25;2.75;;;-0.30;99.90;;;;;;6218761;23;20443;-80
2021/12/22 00:31:20;;;;;;;6.70;2.20;;;-0.30;99.90;;;;;;6218629;23;20016;-79
2021/12/22 00:33:50;;;;;;;7.85;3.25;;;-0.40;99.90;;;;;;6218111;23;20390;-80
2021/12/22 00:36:22;;;;;;;3.47;1.52;;;-0.50;99.90;;;;;;6218533;23;20042;-80
2021/12/22 00:38:54;;;;;;;4.30;2.00;;;-0.50;99.90;;;;;;6218073;23;20031;-79
2021/12/22 00:41:22;;;;;;;2.90;2.00;;;-0.60;99.90;;;;;;6193191;23;20024;-80
2021/12/22 00:43:51;;;;;;;6.33;2.37;;;-0.60;99.90;;;;;;6192890;23;20039;-79
2021/12/22 00:46:24;;;;;;;4.63;2.22;;;-0.60;99.90;;;;;;6218356;23;20514;-79
2021/12/22 00:49:16;;;;;;;5.18;2.17;;;-0.70;99.90;;;;;;6193235;23;20377;-80
2021/12/22 00:51:45;;;;;;;4.65;2.17;;;-0.70;99.90;;;;;;6218350;23;20086;-80
2021/12/22 00:54:13;;;;;;;6.70;2.67;;;-0.80;99.90;;;;;;6193083;23;20331;-79
2021/12/22 00:56:41;;;;;;;5.00;3.03;;;-0.80;99.90;;;;;;6217776;23;20052;-79
2021/12/22 00:59:11;;;;;;;5.53;2.25;;;-0.90;99.90;;;;;;6193228;23;20020;-79
2021/12/22 01:01:40;;;;;;;3.72;2.05;;;-0.90;99.90;;;;;;6193459;23;20047;-80
2021/12/22 01:04:09;;;;;;;2.80;1.45;;;-0.90;99.90;;;;;;6193075;23;20107;-79
2021/12/22 01:06:39;;;;;;;4.93;2.42;;;-0.80;99.90;;;;;;6192785;23;20020;-80
2021/12/22 01:09:08;;;;;;;3.60;1.67;;;-0.80;99.90;;;;;;6218391;23;20016;-80
2021/12/22 01:11:37;;;;;;;3.35;1.98;;;-0.80;99.90;;;;;;6192867;23;20016;-80
2021/12/22 01:14:05;;;;;;;3.90;2.42;;;-0.80;99.90;;;;;;6193095;23;20059;-80
2021/12/22 01:16:35;;;;;;;5.75;2.33;;;-0.80;99.90;;;;;;6192664;23;20459;-79
2021/12/22 01:19:13;;;;;;;5.55;2.35;;;-0.90;99.90;;;;;;6218183;23;20046;-80
2021/12/22 01:21:46;;;;;;;3.13;2.17;;;-0.90;99.90;;;;;;6191988;23;20016;-80
2021/12/22 01:24:21;;;;;;;4.47;1.83;;;-0.90;99.90;;;;;;6193551;23;20074;-79
2021/12/22 01:26:57;;;;;;;5.32;2.60;;;;;;;;;;6217871;23;20020;-79
2021/12/22 01:29:26;;;;;;;5.30;1.75;;;-1.10;99.90;;;;;;6193170;23;20015;-79
2021/12/22 01:31:56;;;;;;;5.07;2.67;;;-1.10;99.90;;;;;;6218115;23;20042;-79
2021/12/22 01:34:27;;;;;;;4.20;1.93;;;-1.10;99.90;;;;;;6193255;23;20390;-79
2021/12/22 01:36:56;;;;;;;6.35;2.47;;;-1.10;99.90;;;;;;6192672;23;20443;-79
2021/12/22 01:39:25;;;;;;;4.78;2.80;;;-1.10;99.90;;;;;;6218258;23;20026;-80
2021/12/22 01:41:54;;;;;;;3.00;2.00;;;-1.20;99.90;;;;;;6217779;23;20027;-79
2021/12/22 01:44:32;;;;;;;3.92;2.15;;;-1.10;99.90;;;;;;6193099;23;20102;-80
2021/12/22 01:49:53;;;;;;;2.42;1.70;;;-1.20;99.90;;;;;;6193295;23;20053;-79
2021/12/22 01:52:23;;;;;;;2.90;1.60;;;-1.20;99.90;;;;;;6217501;23;20016;-79
2021/12/22 01:55:06;;;;;;;4.95;2.38;;;-1.20;99.90;;;;;;6193488;23;20460;-79
2021/12/22 01:57:45;;;;;;;2.45;1.55;;;-1.20;99.90;;;;;;6218384;23;20442;-80
2021/12/22 02:00:16;;;;;;;6.70;2.30;;;-1.20;99.90;;;;;;6218558;23;20022;-80
2021/12/22 02:02:45;;;;;;;6.47;2.55;;;-1.10;99.90;;;;;;6219017;23;20323;-80
2021/12/22 02:05:16;;;;;;;3.25;1.52;;;-1.10;99.90;;;;;;6217601;23;20022;-80
2021/12/22 02:07:48;;;;;;;7.95;2.63;;;-1.10;99.90;;;;;;6192965;23;20074;-80
2021/12/22 02:10:34;;;;;;;6.53;2.33;;;-1.10;99.90;;;;;;6192860;23;20042;-80
2021/12/22 02:13:14;;;;;;;3.97;1.77;;;-1.00;99.90;;;;;;6217798;23;20020;-80
2021/12/22 02:15:43;;;;;;;4.45;2.17;;;-1.00;99.90;;;;;;6217334;23;20396;-80
2021/12/22 02:18:17;;;;;;;4.18;1.90;;;-1.00;99.90;;;;;;6193017;23;20029;-80
2021/12/22 02:20:47;;;;;;;4.90;1.58;;;-1.10;99.90;;;;;;6217410;23;20024;-80
2021/12/22 02:23:17;;;;;;;4.63;2.40;;;-1.20;99.90;;;;;;6192788;23;20059;-80
2021/12/22 02:25:52;;;;;;;3.00;1.23;;;-1.10;99.90;;;;;;6217649;23;20024;-80
2021/12/22 02:28:27;;;;;;;7.80;2.90;;;-1.10;99.90;;;;;;6192408;23;20103;-80
2021/12/22 02:30:56;;;;;;;3.42;0.90;;;-1.10;99.90;;;;;;6192092;23;20023;-79
2021/12/22 02:33:32;;;;;;;5.88;2.33;;;-1.10;99.90;;;;;;6191965;23;20375;-79
2021/12/22 02:36:22;;;;;;;5.95;2.20;;;-1.10;99.90;;;;;;6192185;23;20020;-79
2021/12/22 02:39:00;;;;;;;3.37;1.53;;;-1.10;99.90;;;;;;6191914;23;20051;-79
2021/12/22 02:41:31;;;;;;;3.80;1.55;;;-1.20;99.90;;;;;;6217503;23;20032;-79
2021/12/22 02:44:01;;;;;;;3.03;1.58;;;-1.20;99.90;;;;;;6192320;23;20022;-79
2021/12/22 02:46:34;;;;;;;4.00;1.63;;;-1.20;99.90;;;;;;6191935;23;20324;-80
2021/12/22 02:49:05;;;;;;;5.00;2.13;;;-1.20;99.90;;;;;;6191753;23;20026;-80
2021/12/22 02:51:37;;;;;;;3.67;1.67;;;-1.10;99.90;;;;;;6191387;23;20319;-80
2021/12/22 02:54:07;;;;;;;6.55;2.60;;;-1.20;99.90;;;;;;6191915;23;20024;-80
2021/12/22 02:56:50;;;;;;;4.00;2.15;;;-1.20;99.90;;;;;;6217039;23;20103;-80
2021/12/22 02:59:41;;;;;;;5.45;2.65;;;-1.20;99.90;;;;;;6217654;23;20028;-80
2021/12/22 03:02:30;;;;;;;5.13;1.58;;;-1.10;99.90;;;;;;6192146;23;20390;-80
2021/12/22 03:05:02;;;;;;;3.70;2.13;;;-1.10;99.90;;;;;;6192212;23;20016;-80
2021/12/22 03:10:24;;;;;;;4.30;2.25;;;-1.10;99.90;;;;;;6192777;23;20299;-80
2021/12/22 03:13:00;;;;;;;3.85;2.67;;;-1.00;99.90;;;;;;6192084;23;20399;-80
2021/12/22 03:15:29;;;;;;;4.63;2.40;;;;;;;;;;6191751;23;20020;-80
2021/12/22 03:18:23;;;;;;;4.13;1.43;;;;;;;;;;6216739;23;20027;-80
2021/12/22 03:21:00;;;;;;;3.60;1.48;;;;;;;;;;6192159;23;20031;-80
2021/12/22 03:23:31;;;;;;;3.17;1.55;;;;;;;;;;6191642;23;20026;-80
2021/12/22 03:26:00;;;;;;;4.93;1.48;;;;;;;;;;6191788;23;20016;-80
2021/12/22 03:28:29;;;;;;;6.25;2.25;;;;;;;;;;6216855;23;20020;-80
2021/12/22 03:30:59;;;;;;;4.17;1.57;;;;;;;;;;6192040;23;20034;-80
2021/12/22 03:33:27;;;;;;;2.45;1.23;;;;;;;;;;6216670;23;20448;-81
2021/12/22 03:35:57;;;;;;;3.08;1.95;;;;;;;;;;6191773;23;20206;-80
2021/12/22 03:38:26;;;;;;;24.13;2.53;;;;;;;;;;6191681;23;20398;-80
2021/12/22 03:40:56;;;;;;;2.95;1.63;;;;;;;;;;6191992;23;20347;-80
2021/12/22 03:43:26;;;;;;;4.30;1.90;;;;;;;;;;6217276;23;20062;-81
2021/12/22 03:45:54;;;;;;;3.13;2.03;;;;;;;;;;6191970;23;20024;-80
2021/12/22 03:48:25;;;;;;;3.90;1.88;;;;;;;;;;6192153;23;20016;-81
2021/12/22 03:50:55;;;;;;;2.08;1.15;;;;;;;;;;6192733;23;20020;-80
2021/12/22 03:53:23;;;;;;;2.38;1.25;;;;;;;;;;6192517;23;20525;-80
2021/12/22 03:55:52;;;;;;;3.57;1.73;;;;;;;;;;6193140;23;20480;-80
2021/12/22 03:58:24;;;;;;;2.50;1.30;;;;;;;;;;6191568;23;20099;-79
2021/12/22 04:00:55;;;;;;;3.60;1.48;;;;;;;;;;6191648;23;20028;-80
2021/12/22 04:03:28;;;;;;;3.22;2.13;;;;;;;;;;6191852;23;20020;-80
2021/12/22 04:05:57;;;;;;;3.13;1.48;;;;;;;;;;6191907;23;20039;-80
2021/12/22 04:08:27;;;;;;;3.83;1.80;;;;;;;;;;6216654;23;20055;-79
2021/12/22 04:10:56;;;;;;;8.07;1.95;;;;;;;;;;6191672;23;20024;-79
2021/12/22 04:13:26;;;;;;;4.65;1.90;;;;;;;;;;6191682;23;20435;-79
2021/12/22 04:15:55;;;;;;;3.20;1.13;;;;;;;;;;6191803;23;20063;-79
2021/12/22 04:18:27;;;;;;;4.15;2.40;;;;;;;;;;6191903;23;20030;-80
2021/12/22 04:20:56;;;;;;;4.63;2.07;;;;;;;;;;6191581;23;20034;-80
2021/12/22 04:23:25;;;;;;;2.85;1.63;;;;;;;;;;6217145;23;20021;-80
2021/12/22 04:25:54;;;;;;;3.50;1.35;;;;;;;;;;6216519;23;20020;-80
2021/12/22 04:28:23;;;;;;;3.50;1.73;;;;;;;;;;6192716;23;20070;-80
2021/12/22 04:30:53;;;;;;;6.15;1.52;;;;;;;;;;6192633;23;20099;-80
2021/12/22 04:33:21;;;;;;;4.53;1.40;;;;;;;;;;6195355;23;20055;-81
2021/12/22 04:35:51;;;;;;;3.70;1.63;;;;;;;;;;6221774;23;20051;-81
2021/12/22 04:38:20;;;;;;;3.42;1.77;;;;;;;;;;6221064;23;20024;-80
2021/12/22 04:40:50;;;;;;;7.22;2.50;;;;;;;;;;6191786;23;20021;-79
2021/12/22 04:43:19;;;;;;;4.60;1.67;;;;;;;;;;6220031;23;20021;-80
2021/12/22 04:45:48;;;;;;;2.70;1.27;;;;;;;;;;6192987;23;20020;-80
2021/12/22 04:48:18;;;;;;;5.47;2.42;;;;;;;;;;6192499;23;20094;-80
2021/12/22 04:50:48;;;;;;;4.22;2.63;;;;;;;;;;6192294;23;20508;-79
2021/12/22 04:53:50;;;;;;;5.00;2.13;;;;;;;;;;6191789;23;20110;-80
2021/12/22 04:56:43;;;;;;;7.00;2.50;;;;;;;;;;6217047;23;20024;-80
2021/12/22 04:59:12;;;;;;;5.27;2.37;;;-1.10;99.90;;;;;;6217202;23;20435;-79
2021/12/22 05:01:41;;;;;;;4.45;1.50;;;-1.70;99.90;;;;;;6191651;23;20034;-80
2021/12/22 05:04:11;;;;;;;4.82;2.15;;;-1.70;99.90;;;;;;6217399;23;20020;-80
2021/12/22 05:06:40;;;;;;;6.25;2.67;;;-1.80;99.90;;;;;;6191907;23;20101;-80
2021/12/22 05:09:09;;;;;;;6.07;2.72;;;-1.90;99.90;;;;;;6193278;23;20057;-80
2021/12/22 05:11:37;;;;;;;3.37;2.43;;;-1.90;99.90;;;;;;6218112;23;20019;-80
2021/12/22 05:14:07;;;;;;;5.53;1.80;;;-1.90;99.90;;;;;;6192682;23;20017;-80
2021/12/22 05:16:44;;;;;;;5.13;1.70;;;-1.90;99.90;;;;;;6217717;23;20518;-81
2021/12/22 05:19:15;;;;;;;8.43;3.70;;;-1.90;99.90;;;;;;6193719;23;20020;-81
2021/12/22 05:21:48;;;;;;;4.43;2.88;;;-2.00;99.90;;;;;;6193606;23;20016;-80
2021/12/22 05:24:18;;;;;;;5.93;3.07;;;-2.00;99.90;;;;;;6217562;23;20028;-80
2021/12/22 05:26:47;;;;;;;3.75;1.80;;;-2.00;99.90;;;;;;6193379;23;20030;-80
2021/12/22 05:29:16;;;;;;;3.90;2.13;;;-2.00;99.90;;;;;;6193720;23;20070;-80
2021/12/22 05:31:47;;;;;;;4.57;2.03;;;-2.00;99.90;;;;;;6192941;23;20071;-81
2021/12/22 05:34:17;;;;;;;6.85;2.50;;;-2.00;99.90;;;;;;6193036;23;20103;-80
2021/12/22 05:36:45;;;;;;;6.87;3.63;;;-1.90;99.90;;;;;;6193110;23;20030;-80
2021/12/22 05:39:13;;;;;;;5.15;2.28;;;-1.90;99.90;;;;;;6193387;23;20351;-80
2021/12/22 05:41:42;;;;;;;6.97;2.90;;;-1.90;99.90;;;;;;6218454;23;20016;-80
2021/12/22 05:44:13;;;;;;;3.40;1.80;;;-1.80;99.90;;;;;;6193699;23;20058;-80
2021/12/22 05:46:41;;;;;;;5.85;1.75;;;-1.80;99.90;;;;;;6193356;23;20027;-80
2021/12/22 05:49:10;;;;;;;5.60;1.93;;;-1.80;99.90;;;;;;6192352;23;20017;-79
2021/12/22 05:51:40;;;;;;;5.82;1.88;;;-1.80;99.90;;;;;;6192810;23;20135;-80
2021/12/22 05:54:09;;;;;;;3.20;2.00;;;-1.70;99.90;;;;;;6217930;23;20143;-80
2021/12/22 05:56:38;;;;;;;3.95;1.83;;;-1.60;99.90;;;;;;6192400;23;20020;-80
2021/12/22 05:59:07;;;;;;;3.08;2.10;;;-1.60;99.90;;;;;;6193000;23;20022;-80
2021/12/22 06:01:35;;;;;;;4.07;2.07;;;-1.60;99.90;;;;;;6192589;23;20027;-80
2021/12/22 06:04:06;;;;;;;5.47;1.65;;;-1.60;99.90;;;;;;6192527;23;20103;-80
2021/12/22 06:06:35;;;;;;;2.80;1.63;;;-1.60;99.90;;;;;;6217793;23;20016;-80
2021/12/22 06:09:06;;;;;;;6.60;2.75;;;-1.60;99.90;;;;;;6217758;23;20103;-79
2021/12/22 06:11:34;;;;;;;5.15;1.35;;;-1.60;99.90;;;;;;6191059;23;20027;-79
2021/12/22 06:14:03;;;;;;;1.87;1.13;;;-1.60;99.90;;;;;;6191777;23;20016;-79
2021/12/22 06:16:32;;;;;;;7.57;1.45;;;-1.70;99.90;;;;;;6192282;23;20026;-79
2021/12/22 06:19:04;;;;;;;3.00;1.38;;;-1.70;99.90;;;;;;6217559;23;20028;-79
2021/12/22 06:21:33;;;;;;;2.22;1.20;;;-1.70;99.90;;;;;;6217892;23;20016;-80
2021/12/22 06:24:01;;;;;;;5.53;1.85;;;-1.80;99.90;;;;;;6192815;23;20030;-80
2021/12/22 06:26:32;;;;;;;2.80;1.70;;;-1.80;99.90;;;;;;6192698;23;20064;-79
2021/12/22 06:29:01;;;;;;;2.75;1.60;;;-1.80;99.90;;;;;;6193009;23;20043;-79
2021/12/22 06:31:29;;;;;;;3.67;1.65;;;-1.80;99.90;;;;;;6217476;23;20027;-79
2021/12/22 06:33:57;;;;;;;3.13;1.55;;;-1.80;99.90;;;;;;6217034;23;20455;-79
2021/12/22 06:36:27;;;;;;;4.22;2.00;;;-1.80;99.90;;;;;;6192357;23;20325;-78
2021/12/22 06:39:20;;;;;;;2.23;1.40;;;-1.80;99.90;;;;;;6192244;23;20024;-79
2021/12/22 06:41:51;;;;;;;3.40;1.30;;;-1.80;99.90;;;;;;6192995;23;20028;-79
2021/12/22 06:44:19;;;;;;;3.13;1.50;;;-1.80;99.90;;;;;;6217241;23;20030;-79
2021/12/22 06:46:47;;;;;;;2.92;1.55;;;-1.80;99.90;;;;;;6194226;23;20026;-79
2021/12/22 06:49:17;;;;;;;5.82;1.95;;;-1.80;99.90;;;;;;6216519;23;20020;-79
2021/12/22 06:51:45;;;;;;;2.77;2.00;;;-1.90;99.90;;;;;;6217882;23;20023;-81
2021/12/22 06:54:39;;;;;;;6.30;2.10;;;-2.00;99.90;;;;;;6218254;23;20095;-79
2021/12/22 06:57:14;;;;;;;2.72;1.48;;;-2.10;99.90;;;;;;6218051;23;20108;-77
2021/12/22 06:59:42;;;;;;;7.85;2.00;;;-2.20;99.90;;;;;;6192015;23;20506;-77
2021/12/22 07:02:11;;;;;;;6.43;2.45;;;-2.10;99.90;;;;;;6191801;23;20024;-80
2021/12/22 07:04:51;;;;;;;2.27;1.20;;;-2.10;99.90;;;;;;6194939;23;20080;-80
2021/12/22 07:07:21;;;;;;;2.67;1.13;;;-2.10;99.90;;;;;;6017651;23;20026;-78
2021/12/22 07:09:51;;;;;;;3.78;1.88;;;-2.10;99.90;;;;;;6184679;23;20088;-78
2021/12/22 07:12:20;;;;;;;7.93;2.22;;;-2.10;99.90;;;;;;6138490;23;20048;-81
2021/12/22 07:14:49;;;;;;;2.97;1.38;;;-2.10;99.90;;;;;;6178595;23;20021;-83
2021/12/22 07:17:18;;;;;;;5.23;2.13;;;-2.10;99.90;;;;;;6196898;23;20017;-83
2021/12/22 08:27:41;;;;;;;4.97;2.38;;;;;;;;;;6266429;23;20024;-79
2021/12/22 08:30:12;;;;;;;7.60;2.47;;;;;;;;;;6268317;22;20028;-79
2021/12/22 08:32:41;;;;;;;5.82;2.53;;;;;;;;;;6255572;23;20350;-78
2021/12/22 08:35:13;;;;;;;4.65;2.67;;;;;;;;;;6260997;23;20036;-79
2021/12/22 08:40:29;;;;;;;5.13;2.30;;;;;;;;;;6252280;23;20122;-77
2021/12/22 08:42:59;;;;;;;3.42;1.80;;;;;;;;;;6251390;23;20020;-77
2021/12/22 08:45:28;;;;;;;4.13;2.72;;;;;;;;;;6265544;22;20008;-80
2021/12/22 09:05:34;;;;;;;5.97;1.93;;;;;;;;;;6253657;22;20024;-79
2021/12/22 09:11:24;;;;;;;5.72;2.58;;;;;;;;;;6281987;22;20011;-81
2021/12/22 09:13:54;;;;;;;10.25;2.50;;;;;;;;;;6255110;22;20095;-76
2021/12/22 10:53:10;;;;;;;4.33;1.80;;;1.30;99.90;;;;;;6237693;22;20055;-81
2021/12/22 11:41:55;;;;;;;3.83;1.97;;;2.90;99.90;;;;;;6276268;22;20047;-77
2021/12/22 11:44:46;;;;;;;4.65;1.77;;;2.90;99.90;;;;;;6250970;22;20381;-77
2021/12/22 11:47:16;;;;;;;3.20;1.73;;;2.90;99.90;;;;;;6250151;22;20019;-77
2021/12/22 11:49:54;;;;;;;3.67;2.08;;;2.80;99.90;;;;;;6249752;22;20024;-77
2021/12/22 11:52:37;;;;;;;5.07;2.58;;;2.80;99.90;;;;;;6249266;22;20024;-76
2021/12/22 11:55:12;;;;;;;5.40;2.00;;;2.90;99.90;;;;;;6249427;22;20019;-77
2021/12/22 11:57:42;;;;;;;5.63;2.50;;;3.00;99.90;;;;;;6249776;22;20022;-77
2021/12/22 12:00:26;;;;;;;5.93;2.50;;;3.20;99.90;;;;;;6249776;22;20016;-78
2021/12/22 12:02:56;;;;;;;5.28;2.38;;;3.30;99.90;;;;;;6247897;22;20023;-79
2021/12/22 14:33:04;;;;;;;5.00;1.77;;;3.10;99.80;;;;;;6237868;22;20379;-77
2021/12/22 14:35:38;;;;;;;4.70;1.90;;;3.00;99.90;;;;;;6222189;22;20472;-79
2021/12/22 14:38:08;;;;;;;5.05;2.58;;;2.90;99.90;;;;;;6248289;22;20020;-77
2021/12/22 14:40:41;;;;;;;5.22;2.38;;;3.10;99.90;;;;;;6272265;22;20142;-78
2021/12/22 14:43:14;;;;;;;7.35;2.05;;;3.10;99.90;;;;;;6272641;22;20034;-80
2021/12/22 15:06:58;;;;;;;6.40;1.88;;;3.30;99.90;;;;;;6259457;22;20047;-77
2021/12/22 15:10:13;;;;;;;3.28;1.38;;;3.30;99.90;;;;;;6228270;22;20194;31
2021/12/22 15:12:49;;;;;;;3.85;1.92;;;3.20;99.90;;;;;;6200008;22;20024;-80
2021/12/22 15:15:21;;;;;;;5.07;2.17;;;3.30;99.90;;;;;;6188319;23;20016;-81
2021/12/22 15:21:35;;;;;;;4.63;2.28;;;3.30;99.90;;;;;;6145829;23;20014;-80
2021/12/22 15:24:04;;;;;;;7.45;2.95;;;3.30;99.90;;;;;;6141288;23;20018;-79
2021/12/22 15:26:58;;;;;;;8.02;2.22;;;3.20;99.90;;;;;;6133338;23;20014;-78
2021/12/22 15:32:28;;;;;;;5.00;1.90;;;3.20;99.90;;;;;;6277291;22;20099;-81
2021/12/22 15:35:00;;;;;;;8.50;2.30;;;3.20;99.90;;;;;;6248815;22;20019;-81
2021/12/22 15:37:28;;;;;;;6.53;2.05;;;3.10;99.90;;;;;;6228638;22;20028;-81
2021/12/22 15:43:27;;;;;;;5.63;2.28;;;2.80;99.90;;;;;;6241045;22;20028;-80
2021/12/22 15:45:55;;;;;;;4.90;2.10;;;2.80;99.90;;;;;;6269655;22;20012;-83
2021/12/22 16:24:02;;;;;;;7.97;3.22;;;2.30;99.90;;;;;;6271863;22;20013;-76
2021/12/22 16:33:48;;;;;;;3.90;2.33;;;2.20;99.90;;;;;;6265639;22;20016;-80
2021/12/22 16:36:31;;;;;;;4.07;2.03;;;2.30;99.90;;;;;;6227225;22;20043;-80
2021/12/22 16:39:05;;;;;;;5.85;2.53;;;2.20;99.90;;;;;;6206973;23;20046;-81
2021/12/22 16:41:38;;;;;;;3.38;1.60;;;2.30;99.90;;;;;;6237068;23;20020;-81
2021/12/22 16:44:10;;;;;;;5.33;2.00;;;;;;;;;;6245151;22;20056;-80
2021/12/22 16:46:43;;;;;;;5.80;1.95;;;;;;;;;;6221190;22;20052;-83
2021/12/22 16:49:13;;;;;;;5.72;2.00;;;;;;;;;;6221701;23;20031;-82
2021/12/22 16:55:00;;;;;;;4.63;2.30;;;;;;;;;;6277345;22;20024;-80
2021/12/22 16:57:31;;;;;;;6.73;2.87;;;;;;;;;;6263712;22;20023;-79
2021/12/22 16:59:59;;;;;;;8.35;3.33;;;;;;;;;;6282426;22;20016;-80
2021/12/22 17:02:28;;;;;;;4.68;2.10;;;;;;;;;;6267491;22;20018;-80
2021/12/22 17:04:57;;;;;;;7.57;3.22;;;;;;;;;;6294559;22;20447;-77
2021/12/22 17:11:26;;;;;;;5.80;2.00;;;;;;;;;;6254942;22;20027;-79
2021/12/22 17:13:58;;;;;;;6.68;1.73;;;;;;;;;;6233053;22;20110;-77
2021/12/22 17:16:27;;;;;;;7.15;2.22;;;;;;;;;;6227478;22;20054;-79
2021/12/22 17:18:56;;;;;;;4.70;2.42;;;;;;;;;;6266818;22;20063;-79
2021/12/22 18:12:22;;;;;;;6.67;1.17;;;;;;;;;;6270532;22;20027;-79
2021/12/22 18:14:58;;;;;;;6.25;2.72;;;;;;;;;;6262243;22;20100;-80
2021/12/22 18:17:28;;;;;;;5.63;2.30;;;;;;;;;;6231190;23;20044;-80
2021/12/22 18:19:58;;;;;;;5.70;2.30;;;2.30;99.90;;;;;;6238624;23;20074;-79
2021/12/22 18:22:29;;;;;;;5.90;1.92;;;1.40;99.90;;;;;;6213223;23;20022;-81
2021/12/22 18:31:38;;;;;;;8.35;3.25;;;1.10;99.90;;;;;;6189339;23;20025;-81
2021/12/22 19:01:38;;;;;;;5.47;3.42;;;1.70;99.90;;;;;;6270600;22;19915;-80
2021/12/22 19:04:18;;;;;;;4.65;2.80;;;1.70;99.90;;;;;;6271425;22;20014;-81
2021/12/22 19:06:50;;;;;;;6.65;2.65;;;1.70;99.90;;;;;;6241455;22;20023;-79
2021/12/22 19:09:27;;;;;;;8.57;3.77;;;1.70;99.90;;;;;;6262430;22;20050;-79
2021/12/22 19:12:13;;;;;;;7.97;3.05;;;1.60;99.90;;;;;;6244026;22;20020;-79
2021/12/22 19:14:45;;;;;;;7.43;3.60;;;1.60;99.90;;;;;;6244567;22;20074;-80
2021/12/22 19:17:30;;;;;;;6.35;3.58;;;1.50;99.90;;;;;;6274888;22;20020;-81
2021/12/22 19:20:07;;;;;;;6.28;3.42;;;1.50;99.90;;;;;;6249467;22;20011;-79
2021/12/22 19:22:37;;;;;;;6.00;3.73;;;1.50;99.90;;;;;;6246559;22;20023;-80
2021/12/22 19:25:19;;;;;;;10.38;3.20;;;1.40;99.90;;;;;;6291361;22;20113;-79
2021/12/22 19:27:50;;;;;;;7.57;2.97;;;1.40;99.90;;;;;;6260184;22;20098;-79
2021/12/22 19:30:21;;;;;;;5.15;2.80;;;1.40;99.90;;;;;;6222079;22;20020;-79
2021/12/22 19:32:51;;;;;;;7.75;3.13;;;1.40;99.90;;;;;;6221981;22;20023;-78
2021/12/22 19:35:19;;;;;;;9.27;3.27;;;1.40;99.90;;;;;;6248220;22;20047;-78
2021/12/22 19:37:47;;;;;;;7.07;3.78;;;1.40;99.90;;;;;;6247598;22;20023;-78
2021/12/22 19:40:17;;;;;;;7.10;3.20;;;1.30;99.90;;;;;;6247640;22;20024;-78
2021/12/22 19:42:46;;;;;;;9.35;3.35;;;1.20;99.90;;;;;;6248940;22;20032;-77
2021/12/22 19:45:16;;;;;;;5.50;2.88;;;1.20;99.90;;;;;;6247798;22;20470;-78
2021/12/22 19:48:12;;;;;;;6.57;3.13;;;1.10;99.90;;;;;;6221122;22;20020;-78
2021/12/22 19:50:41;;;;;;;4.50;3.03;;;1.10;99.90;;;;;;6221200;22;20493;-78
2021/12/22 19:53:11;;;;;;;7.18;3.50;;;1.10;99.90;;;;;;6222754;22;20011;-79
2021/12/22 19:55:41;;;;;;;9.10;4.43;;;0.90;99.90;;;;;;6247650;22;20027;-77
2021/12/22 19:58:12;;;;;;;9.00;4.50;;;1.00;99.90;;;;;;6221206;22;20133;-76
2021/12/22 20:00:42;;;;;;;11.07;4.27;;;0.80;99.90;;;;;;6217076;23;20039;-77
2021/12/22 20:03:16;;;;;;;6.63;3.50;;;0.80;99.90;;;;;;6217369;23;20095;-77
2021/12/22 20:05:46;;;;;;;6.05;3.15;;;0.80;99.90;;;;;;6218594;23;20047;-78
2021/12/22 20:08:14;;;;;;;8.27;3.10;;;0.90;99.90;;;;;;6225372;23;20020;-78
2021/12/22 20:10:44;;;;;;;14.43;4.20;;;1.00;99.90;;;;;;6249264;23;20016;-78
2021/12/22 20:13:13;;;;;;;5.30;2.90;;;1.10;99.90;;;;;;6224335;23;20016;-79
2021/12/22 20:15:43;;;;;;;6.88;3.13;;;1.10;99.90;;;;;;6225781;23;20070;-78
2021/12/22 20:18:15;;;;;;;7.00;3.40;;;1.10;99.90;;;;;;6246208;23;20095;-77
2021/12/22 20:20:44;;;;;;;8.25;3.85;;;1.10;99.90;;;;;;6247313;23;20016;-80
2021/12/22 20:23:13;;;;;;;6.97;3.53;;;1.10;99.90;;;;;;6230651;23;20024;-80
2021/12/22 20:25:43;;;;;;;10.33;3.23;;;1.10;99.90;;;;;;6225191;23;20028;-79
2021/12/22 20:31:32;;;;;;;7.07;3.42;;;1.00;99.90;;;;;;6216874;23;20084;-79
2021/12/22 20:34:05;;;;;;;6.88;3.35;;;0.90;99.90;;;;;;6226227;23;20020;-79
2021/12/22 20:36:35;;;;;;;7.82;3.25;;;0.90;99.90;;;;;;6230574;23;20051;-78
2021/12/22 20:39:07;;;;;;;9.57;4.83;;;0.90;99.90;;;;;;6217455;23;20682;-79
2021/12/22 20:41:38;;;;;;;7.03;4.00;;;;;;;;;;6216914;23;20028;-78
2021/12/22 20:44:08;;;;;;;8.07;2.55;;;;;;;;;;6217666;23;20438;-79
2021/12/22 20:46:39;;;;;;;9.18;3.40;;;;;;;;;;6217033;23;20020;-78
2021/12/22 20:49:13;;;;;;;6.22;3.10;;;;;;;;;;6215914;23;20137;-77
2021/12/22 20:51:45;;;;;;;9.03;3.37;;;;;;;;;;6216523;23;20024;-78
2021/12/22 20:54:15;;;;;;;9.23;3.85;;;;;;;;;;6217235;23;20070;-78
2021/12/22 20:56:44;;;;;;;6.78;3.80;;;;;;;;;;6216612;23;20047;-78
2021/12/22 20:59:12;;;;;;;10.95;3.55;;;;;;;;;;6230710;23;20020;-78
2021/12/22 21:01:45;;;;;;;5.57;2.47;;;;;;;;;;6225459;22;20020;-80
2021/12/22 21:04:51;;;;;;;9.70;3.47;;;;;;;;;;6262993;22;20076;-79
2021/12/22 21:07:20;;;;;;;6.22;2.83;;;;;;;;;;6229546;23;20054;-79
2021/12/22 21:09:50;;;;;;;4.75;2.80;;;;;;;;;;6256797;23;20055;-78
2021/12/22 21:12:20;;;;;;;7.00;3.85;;;;;;;;;;6220018;23;20446;-78
2021/12/22 21:14:49;;;;;;;7.75;3.78;;;;;;;;;;6244227;23;20099;-78
2021/12/22 21:17:19;;;;;;;8.47;3.97;;;;;;;;;;6241935;23;20040;-78
2021/12/22 21:19:48;;;;;;;6.20;3.00;;;;;;;;;;6217426;23;20027;-80
2021/12/22 21:22:17;;;;;;;9.70;3.53;;;;;;;;;;6217647;23;20044;-78
2021/12/22 21:24:48;;;;;;;6.65;2.53;;;;;;;;;;6236592;23;20054;-78
2021/12/22 21:27:18;;;;;;;5.47;3.13;;;;;;;;;;6241930;23;20027;-78
2021/12/22 21:29:46;;;;;;;6.87;3.50;;;;;;;;;;6239182;23;20032;-78
2021/12/22 21:32:15;;;;;;;7.43;2.78;;;;;;;;;;6242127;23;20020;-78
2021/12/22 21:34:44;;;;;;;6.07;2.45;;;;;;;;;;6216198;23;20102;-78
2021/12/22 21:37:13;;;;;;;14.00;3.33;;;;;;;;;;6219500;23;20022;-78
2021/12/22 21:39:44;;;;;;;5.40;3.22;;;;;;;;;;6217831;23;20034;-78
2021/12/22 21:42:14;;;;;;;6.70;3.37;;;;;;;;;;6220300;23;20020;-78
2021/12/22 21:44:43;;;;;;;4.40;1.85;;;;;;;;;;6223537;23;20020;-79
2021/12/22 21:47:12;;;;;;;7.10;3.10;;;;;;;;;;6248805;23;20017;-79
2021/12/22 21:49:54;;;;;;;5.85;2.75;;;;;;;;;;6246736;22;20022;-78
2021/12/22 21:52:24;;;;;;;7.07;2.92;;;;;;;;;;6251151;23;20024;-80
2021/12/22 21:54:54;;;;;;;7.00;2.93;;;;;;;;;;6224833;23;20076;-78
2021/12/22 21:57:23;;;;;;;5.80;2.88;;;;;;;;;;6246525;23;20020;-80
2021/12/22 21:59:52;;;;;;;6.00;3.00;;;;;;;;;;6243665;22;20035;-78
2021/12/22 22:02:21;;;;;;;4.15;2.45;;;;;;;;;;6247920;22;20446;-79
2021/12/22 22:04:50;;;;;;;7.63;3.70;;;;;;;;;;6249264;22;20020;-78
2021/12/22 22:07:23;;;;;;;7.07;2.33;;;;;;;;;;6252138;22;20024;-80
2021/12/22 22:09:52;;;;;;;8.20;2.70;;;;;;;;;;6256104;22;20030;-79
2021/12/22 22:12:22;;;;;;;5.13;3.35;;;;;;;;;;6226549;22;20042;-80
2021/12/22 22:18:40;;;;;;;6.63;2.97;;;;;;;;;;6259321;22;20045;-80
2021/12/22 22:21:09;;;;;;;5.80;2.93;;;;;;;;;;6257230;22;20111;-80
2021/12/22 22:23:38;;;;;;;5.95;2.45;;;;;;;;;;6256304;22;20020;-80
2021/12/22 22:26:07;;;;;;;8.65;3.70;;;;;;;;;;6257410;22;20024;-80
2021/12/22 22:29:01;;;;;;;7.22;3.53;;;;;;;;;;6255916;22;20024;-80
2021/12/22 22:31:32;;;;;;;7.10;2.47;;;;;;;;;;6229943;22;20069;-79
2021/12/22 22:34:01;;;;;;;6.53;3.23;;;;;;;;;;6255834;22;20015;-80
2021/12/22 22:36:30;;;;;;;5.47;2.22;;;;;;;;;;6230447;22;20432;-80
2021/12/22 22:41:51;;;;;;;4.65;2.42;;;;;;;;;;6253874;22;20020;-79
2021/12/22 22:44:22;;;;;;;4.35;2.15;;;;;;;;;;6251987;22;20272;-79
2021/12/22 22:46:52;;;;;;;6.30;2.97;;;;;;;;;;6252157;22;20026;-80
2021/12/22 22:49:21;;;;;;;6.35;3.38;;;;;;;;;;6226796;22;20106;-80
2021/12/22 22:51:51;;;;;;;6.15;3.03;;;;;;;;;;6226239;22;20102;-79
2021/12/22 22:54:21;;;;;;;5.95;3.25;;;;;;;;;;6226384;22;20098;-80
2021/12/22 22:56:49;;;;;;;4.30;2.95;;;;;;;;;;6225376;22;20020;-78
2021/12/22 22:59:19;;;;;;;5.93;2.63;;;;;;;;;;6248827;22;20019;-78
2021/12/22 23:02:23;;;;;;;12.07;3.30;;;;;;;;;;6264064;23;20024;-81
2021/12/22 23:04:54;;;;;;;7.18;2.67;;;;;;;;;;6265848;23;20090;-80
2021/12/22 23:07:23;;;;;;;5.20;2.08;;;;;;;;;;6262837;23;20047;-80
2021/12/22 23:09:53;;;;;;;7.32;2.50;;;;;;;;;;6259961;23;20020;-80
2021/12/22 23:12:22;;;;;;;5.47;2.23;;;;;;;;;;6234092;23;20030;-80
2021/12/22 23:14:51;;;;;;;5.35;2.28;;;;;;;;;;6260287;23;20115;-80
2021/12/22 23:17:25;;;;;;;4.47;3.25;;;;;;;;;;6242938;23;20023;-81
2021/12/22 23:19:55;;;;;;;8.40;2.67;;;;;;;;;;6268986;23;20118;-81